Time;durP1;ratioP1;P1;durP2;ratioP2;P2;SDS_P1;SDS_P2;PMS_P1;PMS_P2;Temp;Humidity;BMP_temperature;BMP_pressure;BME280_temperature;BME280_humidity;BME280_pressure;Samples;Min_cycle;Max_cycle;Signal;HPM_P1;HPM_P2
2022/04/01 00:09:15;;;;;;;0.75;0.40;;;9.70;73.80;;;;;;20666628;28;20058;-59
2022/04/01 00:19:17;;;;;;;2.70;0.45;;;9.10;74.90;;;;;;20666107;28;20054;-59
2022/04/01 00:29:20;;;;;;;0.77;0.45;;;9.20;75.00;;;;;;20665214;28;20058;-59
2022/04/01 00:39:23;;;;;;;1.38;0.70;;;9.40;75.10;;;;;;20666587;28;20046;-59
2022/04/01 00:49:27;;;;;;;1.30;0.80;;;9.40;75.10;;;;;;20681867;28;20054;-59
2022/04/01 00:59:28;;;;;;;1.30;0.63;;;9.50;74.90;;;;;;20679853;28;20053;-58
2022/04/01 01:09:29;;;;;;;1.70;1.10;;;9.60;74.40;;;;;;20677865;28;20058;-60
2022/04/01 01:19:32;;;;;;;1.73;0.90;;;9.60;74.10;;;;;;20679567;28;20521;-60
2022/04/01 01:29:38;;;;;;;1.52;0.90;;;9.40;74.50;;;;;;20678927;28;20058;-60
2022/04/01 01:39:41;;;;;;;1.63;0.85;;;9.30;75.30;;;;;;20678072;28;20050;-58
2022/04/01 01:54:43;;;;;;;1.50;0.85;;;9.30;75.30;;;;;;20677506;28;20054;-59
2022/04/01 02:00:11;;;;;;;2.00;1.40;;;9.30;75.20;;;;;;20677844;28;20125;-59
2022/04/01 02:10:15;;;;;;;3.67;1.27;;;9.20;75.10;;;;;;20675401;28;20077;-59
2022/04/01 02:20:19;;;;;;;2.42;0.93;;;9.20;75.40;;;;;;20674501;28;20057;-59
2022/04/01 02:30:24;;;;;;;2.28;1.17;;;9.20;75.70;;;;;;20672692;28;20143;-59
2022/04/01 02:40:27;;;;;;;2.80;1.58;;;9.10;75.80;;;;;;20672860;28;20497;-59
2022/04/01 02:50:29;;;;;;;4.50;1.17;;;9.20;75.80;;;;;;20671387;28;20054;-57
2022/04/01 03:00:34;;;;;;;1.20;0.98;;;9.20;75.60;;;;;;20675320;28;20450;-58
2022/04/01 03:10:37;;;;;;;2.35;0.90;;;9.20;75.60;;;;;;20670005;28;20149;-60
2022/04/01 03:20:39;;;;;;;1.35;0.63;;;9.10;75.80;;;;;;20670226;28;20042;-58
2022/04/01 03:30:41;;;;;;;2.08;0.80;;;9.30;75.60;;;;;;20668575;28;20482;-60
2022/04/01 03:40:48;;;;;;;2.13;1.13;;;9.40;74.60;;;;;;20667649;28;20097;-58
2022/04/01 03:50:56;;;;;;;2.22;1.30;;;9.30;74.30;;;;;;20682059;28;20193;-60
2022/04/01 04:01:01;;;;;;;1.50;1.10;;;9.10;73.80;;;;;;20665041;28;20050;-59
2022/04/01 04:11:04;;;;;;;1.45;0.70;;;9.00;71.70;;;;;;20665998;28;20082;-59
2022/04/01 04:21:10;;;;;;;0.35;0.20;;;9.00;68.80;;;;;;20666339;28;20081;-58
2022/04/01 04:31:22;;;;;;;0.37;0.10;;;8.70;64.50;;;;;;20665592;28;20058;-58
2022/04/01 04:41:26;;;;;;;0.82;0.20;;;8.70;61.20;;;;;;20679974;28;20066;-59
2022/04/01 04:51:39;;;;;;;0.22;0.00;;;;;;;;;;20666212;28;20104;-59
2022/04/01 05:02:09;;;;;;;4.72;0.20;;;8.20;57.30;;;;;;20664836;28;20047;-59
2022/04/01 05:12:29;;;;;;;0.45;0.10;;;8.00;53.90;;;;;;20663935;28;20507;-58
2022/04/01 05:22:47;;;;;;;0.45;0.10;;;7.70;52.90;;;;;;20663740;28;20043;-60
2022/04/01 05:33:09;;;;;;;0.22;0.10;;;7.60;49.00;;;;;;20674430;28;20085;-59
2022/04/01 05:43:13;;;;;;;1.30;0.28;;;7.40;46.50;;;;;;20677783;28;20058;-60
2022/04/01 05:53:16;;;;;;;0.98;0.20;;;7.40;47.60;;;;;;20676437;28;20055;-58
2022/04/01 06:03:42;;;;;;;0.38;0.15;;;7.30;47.40;;;;;;20675173;28;20070;-61
2022/04/01 06:14:10;;;;;;;3.35;0.20;;;7.20;45.60;;;;;;20675565;28;20069;-61
2022/04/01 06:24:28;;;;;;;2.08;0.22;;;7.10;45.30;;;;;;20673547;28;20047;-60
2022/04/01 06:34:55;;;;;;;2.05;0.40;;;7.10;45.50;;;;;;20672473;28;20109;-60
2022/04/01 06:44:58;;;;;;;1.67;0.30;;;7.10;45.60;;;;;;20670509;28;20078;-61
2022/04/01 06:55:00;;;;;;;2.70;0.47;;;7.10;45.80;;;;;;20670710;28;20056;-60
2022/04/01 07:05:02;;;;;;;2.83;0.50;;;7.30;46.10;;;;;;20669952;28;20055;-60
2022/04/01 07:15:07;;;;;;;4.53;1.10;;;7.50;46.20;;;;;;20670434;28;20053;-59
2022/04/01 07:25:10;;;;;;;3.67;0.80;;;7.80;45.90;;;;;;20683509;28;20050;-61
2022/04/01 07:35:13;;;;;;;3.20;0.63;;;8.00;44.50;;;;;;20667937;28;20142;-61
2022/04/01 07:45:16;;;;;;;1.75;0.50;;;8.00;43.30;;;;;;20669439;28;20077;-60
2022/04/01 07:55:19;;;;;;;1.13;0.30;;;7.90;41.70;;;;;;20667185;28;20132;-59
2022/04/01 08:05:21;;;;;;;1.20;0.40;;;7.70;38.70;;;;;;20661193;28;20912;-60
2022/04/01 08:15:23;;;;;;;3.15;0.32;;;9.00;31.90;;;;;;20664772;28;20052;-61
2022/04/01 08:25:29;;;;;;;1.20;0.40;;;8.30;34.50;;;;;;20664650;28;20058;-59
2022/04/01 08:35:30;;;;;;;5.50;0.43;;;8.00;34.70;;;;;;20664783;28;20046;-60
2022/04/01 08:45:35;;;;;;;1.95;0.40;;;8.10;33.80;;;;;;20664870;28;20137;-59
2022/04/01 08:55:37;;;;;;;2.63;0.70;;;8.10;33.20;;;;;;20664989;28;20050;-61
2022/04/01 09:05:45;;;;;;;1.05;0.20;;;8.30;34.30;;;;;;20673300;28;20074;-60
2022/04/01 09:15:47;;;;;;;3.20;0.50;;;8.40;34.30;;;;;;20679649;28;20104;-61
2022/04/01 09:25:52;;;;;;;2.40;0.43;;;8.40;35.20;;;;;;20679451;28;20498;-63
2022/04/01 09:35:54;;;;;;;3.35;0.60;;;8.30;35.20;;;;;;20677276;28;20516;-62
2022/04/01 09:46:03;;;;;;;2.05;0.28;;;8.60;35.20;;;;;;20664291;28;20077;-61
2022/04/01 09:56:05;;;;;;;1.57;0.40;;;9.30;36.00;;;;;;20677154;28;20439;-61
2022/04/01 10:06:10;;;;;;;1.65;0.30;;;9.40;34.90;;;;;;20676215;28;20061;-60
2022/04/01 10:16:13;;;;;;;2.00;0.35;;;10.00;34.20;;;;;;20653922;28;20149;-61
2022/04/01 10:26:21;;;;;;;1.35;0.30;;;9.70;31.70;;;;;;20652099;28;20065;-59
2022/04/01 10:36:26;;;;;;;1.73;0.43;;;9.40;32.50;;;;;;20662502;28;20494;-68
2022/04/01 10:46:28;;;;;;;1.02;0.40;;;9.60;31.10;;;;;;20629476;28;20145;-62
2022/04/01 10:56:33;;;;;;;2.63;0.43;;;9.70;31.40;;;;;;20664908;28;20081;-64
2022/04/01 11:07:11;;;;;;;1.00;0.50;;;10.00;31.80;;;;;;20685868;28;20406;-65
2022/04/01 11:17:13;;;;;;;3.47;0.50;;;10.10;30.80;;;;;;20670548;28;20422;-64
2022/04/01 11:27:25;;;;;;;1.20;0.38;;;10.20;30.50;;;;;;20668855;28;20057;-62
2022/04/01 11:37:27;;;;;;;1.25;0.32;;;10.40;30.20;;;;;;20649417;28;20054;-64
2022/04/01 11:47:37;;;;;;;1.48;0.60;;;10.70;30.30;;;;;;20586437;28;20054;-66
2022/04/01 11:57:39;;;;;;;;;;;10.70;30.70;;;;;;20618901;28;20070;-61
2022/04/01 12:18:10;;;;;;;1.38;0.50;;;11.10;30.50;;;;;;20666502;28;20053;-59
2022/04/01 12:28:15;;;;;;;1.30;0.73;;;11.30;30.70;;;;;;20664813;28;20065;-59
2022/04/01 12:38:17;;;;;;;1.30;0.50;;;11.40;30.80;;;;;;20672616;28;20054;-61
2022/04/01 12:48:23;;;;;;;1.05;0.52;;;11.50;30.80;;;;;;20682069;28;20078;-59
2022/04/01 12:58:27;;;;;;;3.15;0.70;;;11.10;31.70;;;;;;20681229;28;20054;-60
2022/04/01 13:08:32;;;;;;;;;;;11.20;32.30;;;;;;20680547;28;20020;-61
2022/04/01 13:18:34;;;;;;;2.95;0.70;;;11.50;31.30;;;;;;20678897;28;20726;-60
2022/04/01 13:28:35;;;;;;;2.10;0.60;;;11.80;31.40;;;;;;20679263;28;20058;-60
2022/04/01 13:38:37;;;;;;;3.28;0.90;;;12.00;30.50;;;;;;20678694;28;20138;-60
2022/04/01 13:48:38;;;;;;;2.53;0.85;;;11.90;30.10;;;;;;20677414;28;20050;-59
2022/04/01 13:58:39;;;;;;;1.95;0.80;;;12.10;30.30;;;;;;20675439;28;20050;-61
2022/04/01 14:08:41;;;;;;;2.78;0.80;;;12.20;30.50;;;;;;20674967;28;20137;-59
2022/04/01 14:18:43;;;;;;;1.42;0.70;;;11.80;30.60;;;;;;20674910;28;20101;-60
2022/04/01 14:28:45;;;;;;;1.98;0.85;;;11.70;30.20;;;;;;20674198;28;20121;-60
2022/04/01 14:38:46;;;;;;;2.90;0.75;;;12.20;29.50;;;;;;20674000;28;20050;-60
2022/04/01 14:48:48;;;;;;;2.00;0.70;;;11.90;29.50;;;;;;20671570;28;20414;-62
2022/04/01 14:58:50;;;;;;;2.25;0.60;;;11.70;30.30;;;;;;20671058;28;20094;-62
2022/04/01 15:08:51;;;;;;;0.88;0.38;;;12.30;30.40;;;;;;20670614;28;20384;-63
2022/04/01 15:18:54;;;;;;;1.80;0.40;;;;;;;;;;20671970;28;20050;-63
2022/04/01 15:29:09;;;;;;;1.00;0.30;;;;;;;;;;21152552;27;20207;-62
2022/04/01 15:39:12;;;;;;;1.00;0.40;;;;;;;;;;21151146;28;20074;-61
2022/04/01 15:49:18;;;;;;;1.38;0.60;;;;;;;;;;21149911;28;20056;-61
2022/04/01 15:59:20;;;;;;;1.10;0.32;;;;;;;;;;21153591;28;20056;-68
2022/04/01 16:09:27;;;;;;;2.22;0.50;;;;;;;;;;21148275;28;20096;-61
2022/04/01 16:19:30;;;;;;;1.52;0.40;;;;;;;;;;21146141;28;20147;-60
2022/04/01 16:29:32;;;;;;;0.73;0.35;;;;;;;;;;21146779;28;20051;-63
2022/04/01 16:39:34;;;;;;;1.65;0.50;;;;;;;;;;21093233;28;20051;-67
2022/04/01 16:49:38;;;;;;;0.85;0.38;;;;;;;;;;21090237;28;20131;-63
2022/04/01 16:59:40;;;;;;;1.00;0.50;;;12.70;31.00;;;;;;21086511;28;20097;-61
2022/04/01 17:20:05;;;;;;;;;;;12.10;34.30;;;;;;21089177;28;20105;-63
2022/04/01 17:30:08;;;;;;;1.10;0.50;;;11.70;34.90;;;;;;21086868;28;20021;-59
2022/04/01 17:40:16;;;;;;;1.02;0.40;;;;;;;;;;21085692;28;20094;-63
2022/04/01 17:50:18;;;;;;;0.65;0.40;;;;;;;;;;21083539;28;20441;-65
2022/04/01 18:00:20;;;;;;;0.98;0.35;;;;;;;;;;21038563;22;20049;-63
2022/04/01 18:10:22;;;;;;;1.08;0.28;;;;;;;;;;20834172;28;20080;-59
2022/04/01 18:20:25;;;;;;;1.38;0.63;;;;;;;;;;20834007;28;20409;-61
2022/04/01 18:30:30;;;;;;;2.55;1.02;;;;;;;;;;20833801;28;20449;-64
2022/04/01 18:40:32;;;;;;;;;;;;;;;;;;20832213;28;20122;-60
2022/04/01 18:50:34;;;;;;;;;;;;;;;;;;20831668;28;19963;-56
2022/04/01 19:00:35;;;;;;;;;;;;;;;;;;20830316;28;19920;-63
2022/04/01 19:10:39;;;;;;;3.03;1.13;;;;;;;;;;20826943;28;20492;-61
2022/04/01 19:20:46;;;;;;;3.03;0.90;;;;;;;;;;20829665;28;20046;-60
2022/04/01 19:30:47;;;;;;;2.35;1.10;;;;;;;;;;20829508;28;20061;-61
2022/04/01 19:40:49;;;;;;;3.38;1.00;;;;;;;;;;20829574;28;20053;-61
2022/04/01 19:50:53;;;;;;;2.13;1.00;;;;;;;;;;20828970;28;20408;-61
2022/04/01 20:00:55;;;;;;;3.72;1.15;;;;;;;;;;20828237;28;20049;-61
2022/04/01 20:10:57;;;;;;;2.78;1.10;;;;;;;;;;20836156;28;20124;-60
2022/04/01 20:21:01;;;;;;;1.75;0.80;;;;;;;;;;20842227;28;20050;-60
2022/04/01 20:31:05;;;;;;;2.28;1.23;;;;;;;;;;20842386;28;20049;-62
2022/04/01 20:41:07;;;;;;;3.13;0.90;;;;;;;;;;20842386;28;20056;-62
2022/04/01 20:51:09;;;;;;;2.50;0.93;;;;;;;;;;20840410;28;20050;-62
2022/04/01 21:01:12;;;;;;;1.85;0.90;;;;;;;;;;20839234;28;20079;-61
2022/04/01 21:11:14;;;;;;;1.70;0.75;;;;;;;;;;20839351;28;20050;-61
2022/04/01 21:21:17;;;;;;;1.70;0.70;;;;;;;;;;20838361;28;20057;-60
2022/04/01 21:31:19;;;;;;;2.70;0.80;;;;;;;;;;20837097;28;20070;-60
2022/04/01 21:41:20;;;;;;;3.60;1.65;;;;;;;;;;20837486;28;20100;-60
2022/04/01 21:51:22;;;;;;;1.95;1.10;;;;;;;;;;20836259;28;20107;-61
2022/04/01 22:01:33;;;;;;;4.00;0.80;;;;;;;;;;20833630;28;20409;-60
2022/04/01 22:11:37;;;;;;;2.95;0.88;;;;;;;;;;20834153;28;20045;-62
2022/04/01 22:21:40;;;;;;;1.52;0.88;;;7.80;46.20;;;;;;20834085;28;20053;-60
2022/04/01 22:31:42;;;;;;;1.60;0.80;;;;;;;;;;20833278;28;20121;-59
2022/04/01 22:41:44;;;;;;;1.45;0.70;;;8.20;44.70;;;;;;20832075;28;20060;-61
2022/04/01 23:02:05;;;;;;;1.15;0.60;;;7.10;46.60;;;;;;20831880;28;20064;-61
2022/04/01 23:12:11;;;;;;;1.83;0.82;;;;;;;;;;20830237;28;20056;-60
2022/04/01 23:22:13;;;;;;;1.55;0.60;;;;;;;;;;20830840;28;20413;-60
2022/04/01 23:32:15;;;;;;;1.42;0.57;;;;;;;;;;20830337;28;20412;-60
2022/04/01 23:42:18;;;;;;;0.82;0.38;;;;;;;;;;20831711;28;20064;-60
2022/04/01 23:52:20;;;;;;;1.83;0.50;;;;;;;;;;20845336;28;20045;-60
